Rossville, IN (46065)

1:24 PM EDT on May 30, 2015 (GMT -0400)
Rural North Mulberry | | Change Station
CLOSE
Current Station
Personal Weather Station
Location: Mulberry, IN
Elevation: 712 ft
Nearby Weather Stations

Elev 712 ft 40.38 °N, 86.68 °W | Updated 1 second ago

Mostly Cloudy
Mostly Cloudy
78.3 °F
Feels Like 81 °F
N
0.0
Wind Variable Wind from WNW
Gusts 0.0 mph

Today
High -- | Low -- °F
--% Chance of Precip.
Yesterday
High -- | Low -- °F
Precip. -- in
6:19 AM 9:08 PM
Waxing Gibbous, 91% visible
Pressure 29.96 in
Visibility 3.0 miles
Clouds Mostly Cloudy 11000 ft
Heat Index 81 °F
Dew Point 71 °F
Humidity 78%
Rainfall 0.13 in
Snow Depth Not available.
UV 4.0 out of 12
Pollen 1.50 out of 12
Air Quality Not available.
Flu Activity No Activity
SPECI KLAF 301716Z 00000KT 3SM -RA BKN110 23/21 A2996 RMK AO2 LTG DSNT S AND SW RAB01 P0001 T02330206

More Conditions Fewer Conditions

Pressure 29.96 in
Visibility 3.0 miles
Clouds Mostly Cloudy 11000 ft
Heat Index 81 °F
Dew Point 71 °F
Humidity 78%
Rainfall 0.13 in
Snow Depth Not available.
UV 4.0 out of 12
Pollen 1.50 out of 12
Air Quality Not available.
Flu Activity No Activity
SPECI KLAF 301716Z 00000KT 3SM -RA BKN110 23/21 A2996 RMK AO2 LTG DSNT S AND SW RAB01 P0001 T02330206

More Conditions Fewer Conditions

10-Day Weather Forecast

Almanac

Astronomy

May. 30, 2015 Rise Set
Actual Time
Civil Twilight
Nautical Twilight
Astronomical Twilight
Moon
Length of Visible Light
Length of Day
Tomorrow will be .
, % of the Moon is Illuminated

Today's Extremes

State Highs State Lows

Community

WunderPhotos

Upload Photos

1,825,578 photos uploaded!

WunderBlogs® & News

Nearby

Air Quality

  Air Quality AQ Index Pollutant
Not available.

Snow Depth

Station Depth Elevation

Earthquake Activity

City Distance Mag. Time & Date
Minimum magnitude displayed is 2.5.

Coastal Water Temperatures

Place Temperature

Stations

Nearby Weather Stations

Station Location Temp. Windchill Dew Point Humidity Wind Precip. Elev Updated Type